Time;durP1;ratioP1;P1;durP2;ratioP2;P2;SDS_P1;SDS_P2;PMS_P1;PMS_P2;Temp;Humidity;BMP_temperature;BMP_pressure;BME280_temperature;BME280_humidity;BME280_pressure;Samples;Min_cycle;Max_cycle;Signal;HPM_P1;HPM_P2
2023/03/24 00:00:22;;;;;;;1.40;1.20;;;;;;;12.29;79.96;99459.44;4998199;28;20551;-79
2023/03/24 00:02:50;;;;;;;3.33;1.57;;;;;;;12.19;79.46;99460.69;4998121;28;20237;-79
2023/03/24 00:05:18;;;;;;;1.80;1.30;;;;;;;12.13;79.75;99459.22;4997973;28;20205;-80
2023/03/24 00:07:45;;;;;;;1.63;1.37;;;;;;;12.19;79.56;99455.47;4998940;28;20214;-81
2023/03/24 00:10:16;;;;;;;3.30;1.47;;;;;;;12.22;79.65;99452.75;4998456;28;20425;-80
2023/03/24 00:12:45;;;;;;;1.73;1.63;;;;;;;12.30;80.13;99443.66;4997086;28;20255;-80
2023/03/24 00:15:14;;;;;;;2.27;1.80;;;;;;;12.24;80.13;99436.06;4997569;28;20244;-78
2023/03/24 00:17:40;;;;;;;2.43;2.00;;;;;;;12.21;80.88;99428.34;4997048;28;20208;-80
2023/03/24 00:20:12;;;;;;;1.90;1.70;;;;;;;12.20;80.57;99421.41;4997454;28;20217;-79
2023/03/24 00:22:41;;;;;;;1.80;1.70;;;;;;;12.23;80.65;99413.44;4996848;28;20331;-80
2023/03/24 00:25:08;;;;;;;2.50;1.73;;;;;;;12.30;80.98;99395.69;5012363;28;20238;-81
2023/03/24 00:27:35;;;;;;;2.53;1.70;;;;;;;12.27;81.18;99383.59;5015180;28;20208;-80
2023/03/24 00:30:05;;;;;;;2.07;1.50;;;;;;;12.27;81.51;99380.16;5014976;28;20209;-80
2023/03/24 00:32:32;;;;;;;1.80;1.70;;;;;;;12.27;82.04;99352.22;5014966;28;20234;-79
2023/03/24 00:34:59;;;;;;;2.67;1.73;;;;;;;12.25;83.09;99329.63;5015329;28;20586;-79
2023/03/24 00:37:25;;;;;;;3.17;2.20;;;;;;;12.23;84.18;99300.94;5015404;28;20220;-80
2023/03/24 00:39:52;;;;;;;2.13;1.93;;;;;;;12.14;86.27;99256.84;5015570;28;20209;-79
2023/03/24 00:42:18;;;;;;;2.43;2.00;;;;;;;12.15;86.36;99208.88;5016214;28;20270;-80
2023/03/24 00:44:44;;;;;;;2.67;2.10;;;;;;;12.16;86.86;99188.78;5016713;28;20232;-80
2023/03/24 00:47:12;;;;;;;2.20;1.97;;;;;;;12.11;87.62;99163.69;5016912;28;20652;-79
2023/03/24 00:49:44;;;;;;;2.83;2.13;;;;;;;12.14;87.99;99140.91;5017194;28;20284;-79
2023/03/24 00:52:13;;;;;;;2.50;2.30;;;;;;;12.16;88.40;99118.16;5016761;28;20345;-79
2023/03/24 00:54:40;;;;;;;3.30;2.37;;;;;;;12.05;89.35;99101.19;5016270;28;20208;-80
2023/03/24 00:57:07;;;;;;;2.63;2.10;;;;;;;12.08;88.66;99101.03;5016695;28;20249;-79
2023/03/24 00:59:41;;;;;;;2.93;2.10;;;;;;;12.01;89.75;99083.06;5016959;28;20211;-80
2023/03/24 01:02:10;;;;;;;2.23;2.03;;;;;;;12.02;89.55;99076.94;5016926;28;20268;-80
2023/03/24 01:04:38;;;;;;;2.80;2.03;;;;;;;11.99;89.70;99088.41;5016195;28;20215;-78
2023/03/24 01:07:06;;;;;;;2.07;1.87;;;;;;;11.94;89.84;99068.63;5016528;28;20210;-79
2023/03/24 01:09:35;;;;;;;2.80;2.03;;;;;;;11.98;89.86;99065.78;5016208;28;20212;-78
2023/03/24 01:12:01;;;;;;;2.90;2.20;;;;;;;11.92;89.80;99060.84;5016227;28;20237;-79
2023/03/24 01:14:28;;;;;;;2.13;2.00;;;;;;;11.91;90.86;99053.91;5016118;28;20213;-80
2023/03/24 01:16:55;;;;;;;3.73;2.03;;;;;;;12.01;90.18;99049.09;5016179;28;20297;-79
2023/03/24 01:19:21;;;;;;;2.80;2.10;;;;;;;12.02;89.99;99056.03;5016162;28;20263;-78
2023/03/24 01:21:49;;;;;;;1.83;1.73;;;;;;;11.96;90.68;99036.22;5015867;28;20269;-77
2023/03/24 01:24:16;;;;;;;4.03;2.90;;;;;;;11.96;90.42;99038.84;5015294;28;20208;-79
2023/03/24 01:26:43;;;;;;;2.13;1.93;;;;;;;11.96;90.98;99025.78;5015951;28;20240;-79
2023/03/24 01:29:09;;;;;;;2.90;1.80;;;;;;;11.94;91.09;99009.31;5016026;28;20209;-80
2023/03/24 01:31:36;;;;;;;2.30;2.10;;;;;;;11.92;91.35;98998.06;5015668;28;20224;-79
2023/03/24 01:34:03;;;;;;;3.63;2.47;;;;;;;11.94;91.98;98990.16;5016018;28;20216;-79
2023/03/24 01:36:30;;;;;;;2.60;2.10;;;;;;;11.92;91.65;98975.38;5014964;28;20746;-78
2023/03/24 01:38:59;;;;;;;2.33;1.90;;;;;;;11.98;91.93;98981.25;5015744;28;20204;-78
2023/03/24 01:41:27;;;;;;;1.90;1.80;;;;;;;11.96;91.23;98990.94;5015489;28;20690;-78
2023/03/24 01:43:54;;;;;;;2.10;1.93;;;;;;;11.97;91.79;98987.38;5015972;28;20681;-78
2023/03/24 01:46:22;;;;;;;1.93;1.70;;;;;;;12.02;91.77;98981.03;5015766;28;20205;-79
2023/03/24 01:48:52;;;;;;;2.10;1.90;;;;;;;12.03;91.29;98981.84;5015381;28;20213;-79
2023/03/24 01:51:22;;;;;;;3.27;2.10;;;;;;;12.02;91.25;98972.34;5015093;28;20254;-77
2023/03/24 01:53:54;;;;;;;1.90;1.70;;;;;;;12.06;91.40;98968.66;5015035;28;20215;-80
2023/03/24 01:56:23;;;;;;;2.40;2.20;;;;;;;12.07;91.20;98976.44;5015857;28;20286;-78
2023/03/24 01:58:53;;;;;;;1.80;1.70;;;;;;;12.07;91.04;98979.03;5015240;28;20246;-78
2023/03/24 02:01:20;;;;;;;1.90;1.70;;;;;;;12.10;91.51;98964.97;5015444;28;20227;-80
2023/03/24 02:03:47;;;;;;;2.37;1.67;;;;;;;12.11;92.10;98959.66;5014895;28;20217;-77
2023/03/24 02:06:15;;;;;;;1.97;1.73;;;;;;;12.10;92.20;98933.56;5014892;28;20217;-78
2023/03/24 02:08:47;;;;;;;2.30;1.97;;;;;;;12.02;92.04;98933.94;5015893;28;20232;-79
2023/03/24 02:11:14;;;;;;;3.63;1.80;;;;;;;11.99;92.63;98928.00;5015583;28;20243;-79
2023/03/24 02:13:42;;;;;;;1.67;1.43;;;;;;;12.02;92.89;98906.97;5015450;28;20208;-80
2023/03/24 02:16:37;;;;;;;2.13;1.70;;;;;;;11.99;93.21;98917.56;5015419;28;20584;-77
2023/03/24 02:19:37;;;;;;;1.93;1.80;;;;;;;11.90;93.19;98890.94;5014234;28;20264;-78
2023/03/24 02:22:42;;;;;;;2.60;1.57;;;;;;;11.99;93.09;98897.50;5015109;28;20758;-80
2023/03/24 02:25:43;;;;;;;2.07;1.67;;;;;;;12.03;92.99;98885.97;4990026;28;20263;-79
2023/03/24 02:28:22;;;;;;;1.70;1.60;;;;;;;12.06;92.96;98895.41;5015098;28;20216;-79
2023/03/24 02:31:12;;;;;;;1.60;1.50;;;;;;;11.95;92.75;98889.88;5014812;28;20224;-79
2023/03/24 02:34:27;;;;;;;1.90;1.67;;;;;;;12.04;92.38;98903.34;5015552;28;20206;-77
2023/03/24 02:37:31;;;;;;;2.70;1.70;;;;;;;12.08;92.40;98897.03;5018148;28;20207;-80
2023/03/24 02:40:18;;;;;;;1.77;1.63;;;;;;;12.08;92.76;98904.03;5019205;28;20213;-79
2023/03/24 02:42:56;;;;;;;2.43;1.57;;;;;;;12.11;92.40;98904.72;5018767;28;20267;-79
2023/03/24 02:45:27;;;;;;;2.13;1.67;;;;;;;12.11;91.37;98919.59;5019260;28;20236;-79
2023/03/24 02:48:06;;;;;;;1.50;1.40;;;;;;;12.18;91.55;98920.94;5018854;28;20200;-78
2023/03/24 02:50:41;;;;;;;1.73;1.63;;;;;;;12.19;90.97;98924.41;5018833;28;20211;-79
2023/03/24 02:53:15;;;;;;;1.97;1.70;;;;;;;12.22;90.88;98935.56;5018555;28;20212;-78
2023/03/24 02:55:47;;;;;;;1.60;1.50;;;;;;;12.22;90.83;98950.44;5019154;28;20690;-79
2023/03/24 02:58:18;;;;;;;1.73;1.63;;;;;;;12.28;91.38;98929.19;5018850;28;20210;-79
2023/03/24 03:00:49;;;;;;;1.50;1.40;;;;;;;12.30;91.40;98922.94;5018415;28;20734;-77
2023/03/24 03:03:23;;;;;;;1.90;1.80;;;;;;;12.27;91.24;98925.72;5018875;28;20263;-80
2023/03/24 03:05:53;;;;;;;2.47;1.87;;;;;;;12.30;91.44;98904.63;5018835;28;20278;-79
2023/03/24 03:08:22;;;;;;;2.00;1.90;;;;;;;12.31;92.02;98903.72;5018278;28;20212;-79
2023/03/24 03:10:53;;;;;;;1.87;1.77;;;;;;;12.24;91.69;98891.88;5018679;28;20272;-80
2023/03/24 03:13:22;;;;;;;3.23;1.83;;;;;;;12.23;92.88;98879.72;5018874;28;20802;-77
2023/03/24 03:15:53;;;;;;;1.90;1.80;;;;;;;12.28;93.38;98848.09;5019255;28;20208;-80
2023/03/24 03:18:24;;;;;;;1.80;1.70;;;;;;;12.23;94.28;98843.09;5019363;28;20213;-77
2023/03/24 03:20:54;;;;;;;1.97;1.63;;;;;;;12.27;93.92;98830.72;5019052;28;20231;-77
2023/03/24 03:23:25;;;;;;;1.80;1.70;;;;;;;12.31;93.69;98829.63;5019034;28;20248;-78
2023/03/24 03:26:04;;;;;;;2.00;1.80;;;;;;;12.30;94.07;98843.63;5018645;28;20267;-77
2023/03/24 03:28:32;;;;;;;1.87;1.60;;;;;;;12.31;94.17;98817.38;5018947;28;20208;-79
2023/03/24 03:31:05;;;;;;;2.23;2.00;;;;;;;12.28;94.62;98825.38;5018653;28;20290;-77
2023/03/24 03:33:37;;;;;;;2.37;2.07;;;;;;;12.38;94.83;98819.69;5018228;28;20217;-77
2023/03/24 03:36:10;;;;;;;2.47;2.27;;;;;;;12.21;95.92;98803.09;5019030;28;20252;-79
2023/03/24 03:38:45;;;;;;;2.30;2.10;;;;;;;12.18;98.01;98757.94;5020115;28;20212;-79
2023/03/24 03:41:13;;;;;;;2.10;2.00;;;;;;;12.21;99.15;98742.06;5018620;28;20597;-79
2023/03/24 03:43:40;;;;;;;2.50;2.30;;;;;;;12.27;98.70;98724.28;5018309;28;20641;-79
2023/03/24 03:46:07;;;;;;;2.07;1.97;;;;;;;12.28;99.31;98712.03;5018113;28;20237;-80
2023/03/24 03:48:34;;;;;;;2.43;2.30;;;;;;;12.25;99.78;98704.34;5017835;28;20217;-79
2023/03/24 03:51:01;;;;;;;2.63;2.50;;;;;;;12.19;100.00;98696.81;5019222;28;20230;-80
2023/03/24 03:53:36;;;;;;;3.67;2.47;;;;;;;12.08;100.00;98687.78;5018650;28;20206;-79
2023/03/24 03:56:03;;;;;;;2.90;2.63;;;;;;;12.11;100.00;98665.88;5019754;28;20213;-79
2023/03/24 03:58:31;;;;;;;2.77;2.57;;;;;;;12.15;100.00;98650.84;5019825;28;20695;-79
2023/03/24 04:00:57;;;;;;;3.03;2.73;;;;;;;12.19;100.00;98629.69;5019575;28;20225;-80
2023/03/24 04:03:43;;;;;;;3.00;2.80;;;;;;;12.20;100.00;98651.44;5019299;28;20228;-80
2023/03/24 04:06:19;;;;;;;3.53;3.10;;;;;;;12.21;100.00;98655.75;5019317;28;20208;-79
2023/03/24 04:08:49;;;;;;;3.30;3.00;;;;;;;12.10;100.00;98648.50;5020087;28;20227;-80
2023/03/24 04:11:35;;;;;;;3.37;3.17;;;;;;;12.07;100.00;98639.03;5020321;28;20240;-79
2023/03/24 04:14:17;;;;;;;3.40;3.17;;;;;;;12.19;100.00;98624.47;5019396;28;20285;-79
2023/03/24 04:16:54;;;;;;;3.67;3.37;;;;;;;12.06;100.00;98624.25;5020008;28;20636;-79
2023/03/24 04:19:36;;;;;;;3.60;3.30;;;;;;;12.10;100.00;98610.09;5019109;28;20239;-80
2023/03/24 04:22:16;;;;;;;3.50;3.20;;;;;;;12.14;100.00;98616.00;5019205;28;20229;-79
2023/03/24 04:24:49;;;;;;;3.73;3.40;;;;;;;12.16;100.00;98613.31;5018749;28;20216;-80
2023/03/24 04:27:26;;;;;;;3.40;3.10;;;;;;;12.08;100.00;98609.34;5019676;28;20294;-79
2023/03/24 04:30:02;;;;;;;3.70;3.40;;;;;;;12.09;100.00;98594.47;5019068;28;20209;-79
2023/03/24 04:32:35;;;;;;;3.80;3.50;;;;;;;12.12;100.00;98605.63;5018423;28;20226;-78
2023/03/24 04:35:06;;;;;;;3.63;3.43;;;;;;;12.10;100.00;98604.84;5018894;28;20213;-79
2023/03/24 04:37:36;;;;;;;3.53;3.07;;;;;;;12.14;100.00;98597.69;5019194;28;20231;-79
2023/03/24 04:40:09;;;;;;;3.27;3.07;;;;;;;12.15;100.00;98606.38;5018675;28;20217;-78
2023/03/24 04:42:39;;;;;;;3.83;3.53;;;;;;;12.03;100.00;98600.91;5018623;28;20268;-79
2023/03/24 04:45:09;;;;;;;3.60;3.40;;;;;;;12.10;100.00;98596.19;5018588;28;20255;-80
2023/03/24 04:47:42;;;;;;;3.63;3.33;;;;;;;12.15;100.00;98593.31;5018770;28;20209;-79
2023/03/24 04:50:11;;;;;;;3.47;3.17;;;;;;;11.99;100.00;98578.47;5018167;28;20213;-79
2023/03/24 04:52:38;;;;;;;4.17;3.87;;;;;;;11.99;100.00;98570.63;5018541;28;20250;-79
2023/03/24 04:55:28;;;;;;;3.93;3.63;;;;;;;12.00;100.00;98574.91;5018917;28;20241;-79
2023/03/24 04:57:55;;;;;;;4.37;3.60;;;;;;;12.08;100.00;98583.19;5018485;28;20239;-79
2023/03/24 05:00:23;;;;;;;3.90;3.60;;;;;;;12.07;100.00;98585.88;5017994;28;20210;-79
2023/03/24 05:02:51;;;;;;;3.77;3.47;;;;;;;12.12;100.00;98578.63;5018376;28;20233;-79
2023/03/24 05:05:17;;;;;;;4.07;3.80;;;;;;;12.07;100.00;98586.75;5017823;28;20806;-79
2023/03/24 05:07:43;;;;;;;3.60;3.40;;;;;;;12.18;100.00;98580.91;5018848;28;20204;-79
2023/03/24 05:10:11;;;;;;;3.43;3.20;;;;;;;12.10;100.00;98591.78;5018631;28;20299;-80
2023/03/24 05:12:37;;;;;;;3.87;3.43;;;;;;;12.15;100.00;98602.00;5018167;28;20220;-80
2023/03/24 05:15:05;;;;;;;3.70;3.40;;;;;;;12.20;100.00;98609.59;5018198;28;20207;-80
2023/03/24 05:17:33;;;;;;;3.97;3.67;;;;;;;12.27;100.00;98610.97;5018490;28;20213;-80
2023/03/24 05:19:59;;;;;;;3.90;3.60;;;;;;;12.34;100.00;98609.66;5018165;28;20254;-79
2023/03/24 05:22:26;;;;;;;4.10;3.80;;;;;;;12.32;100.00;98622.81;5017931;28;20242;-79
2023/03/24 05:24:52;;;;;;;3.90;3.70;;;;;;;12.40;100.00;98626.81;5017469;28;20608;-80
2023/03/24 05:27:18;;;;;;;3.60;3.40;;;;;;;12.42;99.20;98646.72;5017770;28;20236;-80
2023/03/24 05:29:45;;;;;;;4.00;3.70;;;;;;;12.41;98.95;98645.03;5017415;28;20216;-80
2023/03/24 05:32:12;;;;;;;4.07;3.83;;;;;;;12.48;99.40;98662.06;5017656;28;20234;-80
2023/03/24 05:34:39;;;;;;;3.63;3.43;;;;;;;12.45;98.20;98662.25;5018042;28;20204;-80
2023/03/24 05:37:10;;;;;;;4.03;3.77;;;;;;;12.50;98.28;98675.09;5018175;28;20744;-78
2023/03/24 05:39:37;;;;;;;4.37;4.07;;;;;;;12.49;97.82;98679.47;5018007;28;20214;-77
2023/03/24 05:42:03;;;;;;;3.87;3.57;;;;;;;12.50;97.96;98689.00;5017572;28;20239;-77
2023/03/24 05:44:30;;;;;;;4.03;3.60;;;;;;;12.56;97.38;98702.69;5017857;28;20235;-79
2023/03/24 05:46:56;;;;;;;4.40;4.10;;;;;;;12.60;96.70;98706.81;5017556;28;20644;-77
2023/03/24 05:49:23;;;;;;;4.20;3.90;;;;;;;12.55;96.95;98701.00;5017841;28;20209;-78
2023/03/24 05:51:51;;;;;;;3.87;3.57;;;;;;;12.56;96.11;98708.75;5017837;28;20244;-79
2023/03/24 05:54:17;;;;;;;4.17;3.87;;;;;;;12.61;95.69;98713.75;5017416;28;20211;-79
2023/03/24 05:56:43;;;;;;;3.93;3.63;;;;;;;12.61;95.56;98719.00;5017811;28;20210;-77
2023/03/24 05:59:10;;;;;;;3.40;3.20;;;;;;;12.67;95.22;98718.66;5017846;28;20237;-79
2023/03/24 06:01:37;;;;;;;3.23;3.03;;;;;;;12.70;94.26;98749.88;5017205;28;20232;-78
2023/03/24 06:04:03;;;;;;;3.77;3.53;;;;;;;12.71;94.34;98754.22;5017679;28;20283;-78
2023/03/24 06:06:30;;;;;;;4.10;3.33;;;;;;;12.72;94.07;98761.13;5017399;28;20206;-78
2023/03/24 06:09:01;;;;;;;4.07;3.77;;;;;;;12.72;94.32;98766.34;5017387;28;20213;-79
2023/03/24 06:11:27;;;;;;;3.80;3.20;;;;;;;12.80;93.65;98768.56;5015959;28;20242;-79
2023/03/24 06:13:57;;;;;;;3.57;3.27;;;;;;;12.82;94.40;98770.16;5015590;28;20610;-80
2023/03/24 06:16:24;;;;;;;4.73;3.33;;;;;;;12.84;94.05;98773.56;5016880;28;20358;-78
2023/03/24 06:18:51;;;;;;;3.60;3.40;;;;;;;12.81;93.82;98778.13;5016693;28;20207;-78
2023/03/24 06:21:18;;;;;;;4.10;3.80;;;;;;;12.84;93.40;98775.31;5016403;28;20316;-78
2023/03/24 06:23:45;;;;;;;4.00;3.70;;;;;;;12.83;93.78;98781.50;5016646;28;20229;-79
2023/03/24 06:26:13;;;;;;;4.00;3.70;;;;;;;12.84;94.49;98770.06;5017241;28;20212;-79
2023/03/24 06:28:40;;;;;;;4.43;4.10;;;;;;;12.78;96.14;98741.63;5017425;28;20737;-79
2023/03/24 06:31:13;;;;;;;4.13;3.83;;;;;;;12.73;96.44;98730.56;5017474;28;20254;-77
2023/03/24 06:33:39;;;;;;;4.27;3.97;;;;;;;12.75;97.70;98699.91;5016897;28;20216;-77
2023/03/24 06:36:07;;;;;;;3.63;3.43;;;;;;;12.67;98.61;98705.56;5016968;28;20248;-78
2023/03/24 06:38:33;;;;;;;4.40;4.10;;;;;;;12.66;98.65;98688.16;5016905;28;20659;-79
2023/03/24 06:41:00;;;;;;;4.20;3.90;;;;;;;12.50;99.91;98682.94;5017409;28;20236;-79
2023/03/24 06:43:28;;;;;;;4.90;4.50;;;;;;;12.40;100.00;98664.28;5016390;28;20305;-78
2023/03/24 06:45:55;;;;;;;5.10;4.80;;;;;;;12.46;100.00;98660.47;5016327;28;20232;-79
2023/03/24 06:48:21;;;;;;;3.90;3.60;;;;;;;12.34;100.00;98662.00;5016947;28;20273;-79
2023/03/24 06:50:48;;;;;;;4.53;4.13;;;;;;;12.39;100.00;98643.41;5016775;28;20224;-78
2023/03/24 06:53:15;;;;;;;4.20;3.90;;;;;;;12.41;100.00;98660.75;5017031;28;20243;-79
2023/03/24 06:55:41;;;;;;;4.27;3.93;;;;;;;12.41;100.00;98660.75;5015917;28;20248;-78
2023/03/24 06:58:08;;;;;;;3.50;3.30;;;;;;;12.39;99.90;98682.66;5016565;28;20205;-78
2023/03/24 07:00:35;;;;;;;3.23;2.93;;;;;;;12.41;99.54;98689.53;5016832;28;20210;-81
2023/03/24 07:03:02;;;;;;;1.90;1.80;;;;;;;12.49;95.49;98747.53;5016300;28;20258;-79
2023/03/24 07:05:29;;;;;;;2.13;2.03;;;;;;;12.49;94.32;98802.47;5016010;28;20243;-80
2023/03/24 07:07:56;;;;;;;1.60;1.50;;;;;;;12.38;92.98;98851.91;5016565;28;20212;-80
2023/03/24 07:10:22;;;;;;;1.83;1.73;;;;;;;12.35;92.01;98869.53;5016824;28;20254;-80
2023/03/24 07:12:49;;;;;;;1.90;1.80;;;;;;;12.45;92.98;98874.22;5017206;28;20210;-79
2023/03/24 07:15:16;;;;;;;1.60;1.50;;;;;;;12.41;92.14;98877.94;5016152;28;20205;-79
2023/03/24 07:17:43;;;;;;;1.93;1.83;;;;;;;12.37;91.84;98914.78;5017009;28;20235;-79
2023/03/24 07:20:10;;;;;;;2.40;2.20;;;;;;;12.39;91.59;98931.25;5016047;28;20211;-81
2023/03/24 07:22:37;;;;;;;1.87;1.77;;;;;;;12.47;92.37;98926.50;5017338;28;20278;-80
2023/03/24 07:25:05;;;;;;;2.00;1.90;;;;;;;12.46;91.00;98964.88;5018665;28;20224;-78
2023/03/24 07:27:32;;;;;;;1.63;1.53;;;;;;;12.55;90.80;98975.81;5019274;28;20212;-80
2023/03/24 07:29:58;;;;;;;2.00;1.90;;;;;;;12.62;90.93;98980.66;5019197;28;20204;-80
2023/03/24 07:32:25;;;;;;;2.10;1.83;;;;;;;12.58;91.24;98984.38;5019829;28;20657;-81
2023/03/24 07:34:53;;;;;;;1.93;1.73;;;;;;;12.66;91.95;98984.81;5018490;28;20685;-80
2023/03/24 07:37:19;;;;;;;2.40;2.27;;;;;;;12.69;91.80;98991.69;5018673;28;20678;-80
2023/03/24 07:39:46;;;;;;;2.00;1.90;;;;;;;12.68;91.34;99001.28;5018706;28;20639;-80
2023/03/24 07:42:13;;;;;;;1.90;1.80;;;;;;;12.74;91.92;98989.66;5018563;28;20238;-80
2023/03/24 07:44:39;;;;;;;2.33;2.13;;;;;;;12.74;92.33;98984.44;5017877;28;20260;-79
2023/03/24 07:47:06;;;;;;;1.70;1.60;;;;;;;12.81;92.04;98975.34;5018015;28;20259;-80
2023/03/24 07:49:32;;;;;;;2.40;2.20;;;;;;;12.84;92.86;98963.84;5017834;28;20255;-79
2023/03/24 07:52:05;;;;;;;2.37;2.27;;;;;;;12.77;92.33;98975.59;5017962;28;20257;-79
2023/03/24 07:54:32;;;;;;;2.77;2.57;;;;;;;12.82;91.86;98991.91;5017461;28;20211;-81
2023/03/24 07:56:58;;;;;;;2.50;2.33;;;;;;;12.63;91.38;99005.09;5018384;28;20236;-80
2023/03/24 07:59:25;;;;;;;4.27;2.87;;;;;;;12.52;91.81;99013.47;5018281;28;20241;-80
2023/03/24 08:01:52;;;;;;;3.57;3.27;;;;;;;12.53;91.76;99028.25;5018985;28;20260;-79
2023/03/24 08:04:19;;;;;;;3.20;3.00;;;;;;;12.38;93.58;99005.47;5017925;28;20308;-78
2023/03/24 08:06:45;;;;;;;2.70;2.50;;;;;;;12.38;93.00;99013.31;5020188;28;20218;-79
2023/03/24 08:09:14;;;;;;;3.03;2.83;;;;;;;12.34;93.46;99010.00;5018818;28;20207;-80
2023/03/24 08:11:40;;;;;;;2.30;2.20;;;;;;;12.34;92.67;99006.53;5018092;28;20235;-80
2023/03/24 08:14:07;;;;;;;2.00;1.90;;;;;;;12.39;89.91;99073.44;5017987;28;20694;-81
2023/03/24 08:16:34;;;;;;;1.60;1.50;;;;;;;12.38;86.59;99141.53;5018330;28;20232;-81
2023/03/24 08:19:00;;;;;;;1.87;1.40;;;;;;;12.31;87.10;99165.38;5018126;28;20266;-81
2023/03/24 08:21:26;;;;;;;1.83;1.27;;;;;;;12.23;82.62;99229.41;5018678;28;20240;-80
2023/03/24 08:23:53;;;;;;;2.13;1.63;;;;;;;12.30;82.54;99276.19;5018306;28;20256;-81
2023/03/24 08:26:21;;;;;;;0.97;0.83;;;;;;;12.29;81.98;99316.34;5017632;28;20205;-81
2023/03/24 08:28:48;;;;;;;1.03;1.03;;;;;;;12.22;81.73;99338.47;5018028;28;20211;-80
2023/03/24 08:31:14;;;;;;;0.90;0.87;;;;;;;12.30;79.97;99354.69;5017962;28;20224;-80
2023/03/24 08:33:41;;;;;;;1.50;0.90;;;;;;;12.44;80.19;99379.41;5016759;28;20664;-80
2023/03/24 08:36:08;;;;;;;0.60;0.60;;;;;;;12.42;77.05;99402.19;5018077;28;20221;-82
2023/03/24 08:38:37;;;;;;;0.60;0.60;;;;;;;12.54;76.92;99479.31;5018005;28;20630;-80
2023/03/24 08:41:07;;;;;;;1.60;0.70;;;;;;;12.60;74.67;99500.00;5018122;28;20229;-80
2023/03/24 08:43:36;;;;;;;1.33;0.50;;;;;;;12.71;73.34;99560.63;5017419;28;20211;-80
2023/03/24 08:46:06;;;;;;;1.23;0.60;;;;;;;12.85;74.54;99594.09;5017696;28;20207;-80
2023/03/24 08:48:33;;;;;;;2.77;1.07;;;;;;;12.88;73.08;99594.81;5017379;28;20249;-80
2023/03/24 08:51:00;;;;;;;1.80;0.80;;;;;;;12.99;72.07;99651.16;5017578;28;20228;-80
2023/03/24 08:53:26;;;;;;;1.73;0.77;;;;;;;12.96;72.51;99703.66;5018104;28;20233;-80
2023/03/24 08:55:52;;;;;;;3.00;0.90;;;;;;;12.95;71.67;99704.59;5017620;28;20304;-79
2023/03/24 08:58:26;;;;;;;2.43;0.94;;;;;;;12.69;71.67;99736.13;4565383;28;10002920;-79
2023/03/24 09:00:53;;;;;;;1.77;0.70;;;;;;;12.62;72.19;99728.56;4976093;28;20254;-81
2023/03/24 09:03:21;;;;;;;3.27;0.93;;;;;;;12.56;73.43;99729.66;4975356;28;20240;-77
2023/03/24 09:05:47;;;;;;;1.57;1.00;;;;;;;12.27;72.15;99729.00;4975380;28;20234;-79
2023/03/24 09:08:18;;;;;;;2.67;1.00;;;;;;;12.12;72.19;99755.72;4974995;28;20240;-80
2023/03/24 09:10:46;;;;;;;2.97;0.90;;;;;;;12.15;71.92;99736.44;4975958;28;20730;-83
2023/03/24 09:13:12;;;;;;;1.17;1.03;;;;;;;12.06;72.38;99743.72;4974526;28;20211;-80
2023/03/24 09:15:39;;;;;;;2.10;1.20;;;;;;;12.09;72.99;99741.00;4979518;28;20201;-81
2023/03/24 09:18:07;;;;;;;1.67;1.40;;;;;;;12.27;73.33;99710.69;4994796;28;20232;-80
2023/03/24 09:20:33;;;;;;;3.27;1.47;;;;;;;12.27;73.77;99695.00;4991898;28;20213;-80
2023/03/24 09:23:00;;;;;;;2.20;1.47;;;;;;;12.42;73.60;99661.28;4994356;28;20664;-81
2023/03/24 09:25:26;;;;;;;1.33;1.17;;;;;;;12.36;72.13;99699.00;4993879;28;20236;-81
2023/03/24 09:27:52;;;;;;;2.23;1.40;;;;;;;12.26;70.65;99731.69;4994759;28;20714;-80
2023/03/24 09:30:22;;;;;;;2.40;1.50;;;;;;;12.23;70.77;99739.63;5000483;28;20206;-79
2023/03/24 09:32:48;;;;;;;2.80;1.70;;;;;;;12.24;70.01;99742.19;4992387;28;20215;-79
2023/03/24 09:35:17;;;;;;;3.30;1.53;;;;;;;12.36;71.17;99733.03;4993740;28;20260;-79
2023/03/24 09:37:44;;;;;;;4.93;1.50;;;;;;;12.39;71.38;99737.28;4994671;28;20232;-79
2023/03/24 09:40:18;;;;;;;1.80;1.70;;;;;;;12.32;70.63;99727.06;4993163;28;20210;-79
2023/03/24 09:42:50;;;;;;;1.70;1.60;;;;;;;12.35;71.94;99730.47;4994105;28;20713;-79
2023/03/24 09:45:19;;;;;;;2.00;1.67;;;;;;;12.34;72.30;99700.84;4994052;28;20233;-80
2023/03/24 09:47:49;;;;;;;2.20;1.43;;;;;;;12.25;72.19;99690.72;4995169;28;20210;-80
2023/03/24 09:50:24;;;;;;;3.27;1.90;;;;;;;12.28;72.25;99685.38;4994239;28;20241;-79
2023/03/24 09:52:53;;;;;;;3.57;1.73;;;;;;;12.27;73.91;99668.81;4994023;28;20212;-80
2023/03/24 09:55:24;;;;;;;1.97;1.60;;;;;;;12.29;72.96;99637.38;4994413;28;20322;-80
2023/03/24 09:57:51;;;;;;;2.60;2.03;;;;;;;12.37;74.29;99635.31;4994263;28;20212;-79
2023/03/24 10:00:20;;;;;;;2.47;1.70;;;;;;;12.19;73.55;99636.88;4994680;28;20218;-79
2023/03/24 10:02:47;;;;;;;4.63;2.30;;;;;;;12.06;73.42;99635.63;4994467;28;20213;-79
2023/03/24 10:05:15;;;;;;;7.30;2.47;;;;;;;11.95;74.21;99616.88;4994350;28;20989;-79
2023/03/24 10:07:50;;;;;;;4.13;2.00;;;;;;;11.97;72.74;99609.81;4994013;28;20774;-79
2023/03/24 10:10:26;;;;;;;4.50;2.63;;;;;;;11.97;71.54;99657.75;4994261;28;20220;-79
2023/03/24 10:12:56;;;;;;;5.30;2.33;;;;;;;12.02;73.37;99657.59;4993927;28;20208;-79
2023/03/24 10:15:29;;;;;;;4.73;2.53;;;;;;;12.30;73.76;99615.50;4993714;28;20240;-80
2023/03/24 10:18:01;;;;;;;4.17;2.40;;;;;;;12.39;72.23;99637.84;4994179;28;20221;-79
2023/03/24 10:20:35;;;;;;;4.43;2.40;;;;;;;12.62;71.59;99650.88;4994084;28;20242;-79
2023/03/24 10:23:16;;;;;;;3.40;2.40;;;;;;;12.72;69.51;99685.41;4993444;28;20246;-79
2023/03/24 10:25:51;;;;;;;3.37;2.40;;;;;;;12.71;69.90;99718.59;4993956;28;20264;-80
2023/03/24 10:28:20;;;;;;;3.90;2.20;;;;;;;12.69;68.97;99745.75;4993672;28;20220;-79
2023/03/24 10:30:49;;;;;;;5.13;2.37;;;;;;;12.51;69.41;99790.06;4993211;28;20229;-79
2023/03/24 10:33:16;;;;;;;5.03;2.30;;;;;;;12.36;68.70;99771.44;4993544;28;20243;-79
2023/03/24 10:35:50;;;;;;;2.63;2.00;;;;;;;12.41;69.50;99777.38;4992230;28;20210;-79
2023/03/24 10:38:21;;;;;;;4.80;2.17;;;;;;;12.54;70.18;99768.13;4992775;28;20236;-80
2023/03/24 10:40:48;;;;;;;5.07;1.87;;;;;;;12.58;69.13;99790.66;4993614;28;20232;-80
2023/03/24 10:43:17;;;;;;;4.73;1.93;;;;;;;12.79;69.48;99777.69;4993903;28;20205;-81
2023/03/24 10:45:47;;;;;;;4.03;1.73;;;;;;;12.84;68.30;99797.56;4993295;28;20233;-80
2023/03/24 10:48:15;;;;;;;3.77;2.00;;;;;;;12.84;66.36;99828.97;4993240;28;20217;-80
2023/03/24 10:50:44;;;;;;;4.90;2.20;;;;;;;12.94;67.36;99860.03;4993944;28;20323;-80
2023/03/24 10:53:20;;;;;;;3.63;2.40;;;;;;;12.83;66.88;99869.16;4994004;28;20255;-80
2023/03/24 10:55:47;;;;;;;3.13;2.00;;;;;;;12.79;64.85;99912.09;4993399;28;20264;-80
2023/03/24 10:58:20;;;;;;;4.97;2.30;;;;;;;12.86;65.56;99931.94;4997059;28;20213;-80
2023/03/24 11:00:47;;;;;;;5.33;2.80;;;;;;;13.02;67.59;99907.75;4997137;28;20228;-80
2023/03/24 11:03:16;;;;;;;4.80;2.60;;;;;;;13.10;68.39;99885.63;4997427;28;20747;-80
2023/03/24 11:05:44;;;;;;;4.23;2.10;;;;;;;13.01;65.95;99890.34;4997979;28;20225;-80
2023/03/24 11:08:25;;;;;;;4.37;2.17;;;;;;;13.00;64.76;99906.97;4997390;28;20220;-79
2023/03/24 11:10:54;;;;;;;3.80;2.30;;;;;;;12.99;64.36;99973.38;4997490;28;20234;-80
2023/03/24 11:13:28;;;;;;;4.77;2.20;;;;;;;13.28;66.54;99946.09;4996565;28;20205;-78
2023/03/24 11:16:04;;;;;;;5.03;2.03;;;;;;;13.29;64.46;99934.69;4997091;28;20243;-79
2023/03/24 11:18:30;;;;;;;5.67;2.57;;;;;;;13.13;66.16;99944.91;4997772;28;20220;-79
2023/03/24 11:20:59;;;;;;;3.60;2.30;;;;;;;12.92;64.12;99970.13;4997536;28;20233;-80
2023/03/24 11:23:29;;;;;;;4.90;2.37;;;;;;;12.98;64.67;99976.91;4997203;28;20244;-79
2023/03/24 11:26:07;;;;;;;3.13;2.23;;;;;;;12.80;63.49;99981.88;4997665;28;20236;-80
2023/03/24 11:28:38;;;;;;;2.70;2.20;;;;;;;12.80;63.40;99979.28;4997224;28;20369;-80
2023/03/24 11:31:08;;;;;;;3.73;2.60;;;;;;;12.93;62.86;100008.53;4997536;28;20261;-80
2023/03/24 11:33:42;;;;;;;8.13;2.50;;;;;;;12.95;62.26;100008.47;4996733;28;20352;-80
2023/03/24 11:36:36;;;;;;;4.60;2.13;;;;;;;13.08;63.63;100017.59;4997767;28;20209;-80
2023/03/24 11:39:10;;;;;;;4.43;2.20;;;;;;;13.16;62.27;100012.94;4997131;28;20275;-79
2023/03/24 11:41:40;;;;;;;2.40;2.20;;;;;;;13.13;59.51;100023.53;4997931;28;20241;-80
2023/03/24 11:44:16;;;;;;;3.73;2.00;;;;;;;13.18;60.16;100078.38;4997367;28;20214;-80